Terminal Aerodrome Forecast
Issued by NWS Sterling, VA

Home | Current Version | Previous Version | Text Only | Print | Product List | Glossary On
Versions: 1 2 3 4 5 6 7 8 9 10 11 12 13 14 15 16 17 18 19 20 21
000
FTUS41 KLWX 300500 RRA
TAFDCA
TAF
KDCA 300546Z 3006/0106 00000KT P6SM BKN008 OVC090
     FM300800 00000KT P6SM SCT090
     FM301000 VRB03KT 3SM BR SCT090
     FM301300 VRB03KT P6SM FEW050 SCT090
     FM010300 VRB03KT P6SM BKN090=

USA.gov is the U.S. government's official web portal to all federal, state and local government web resources and services.